KTOA/TOA METAR and TAF weather

Enter ICAO airport designator
Station Type Date Time Source
KTOA METAR 2021/06/22 22:47 UTC NOAA

KTOA 222247Z 26017KT 10SM FEW015 SCT180 22/15 A2991


Station Type Date Time Source
KTOA Decoded METAR 2021/06/22 22:47 UTC NOAA

Torrance, Zamperini Field Airport, CA, United States (KTOA) 33-48N 118-20W
Jun 22, 2021 - 06:47 PM EDT / 2021.06.22 2247 UTC
Wind: from the W (260 degrees) at 20 MPH (17 KT):0
Visibility: 10 mile(s):0
Sky conditions: partly cloudy
Temperature: 71 F (22 C)
Dew Point: 59 F (15 C)
Relative Humidity: 64%
Pressure (altimeter): 29.91 in. Hg (1012 hPa)
ob: KTOA 222247Z 26017KT 10SM FEW015 SCT180 22/15 A2991
cycle: 23

Station Type Date Time Source
KTOA TAF UTC NOAA

Error!

Example: see airport list